Time;durP1;ratioP1;P1;durP2;ratioP2;P2;SDS_P1;SDS_P2;PMS_P1;PMS_P2;Temp;Humidity;BMP_temperature;BMP_pressure;BME280_temperature;BME280_humidity;BME280_pressure;Samples;Min_cycle;Max_cycle;Signal;HPM_P1;HPM_P2
2023/06/19 00:01:14;;;;;;;4.38;3.75;;;;;;;18.82;55.80;95064.28;5087895;28;20094;-84
2023/06/19 00:03:39;;;;;;;5.57;4.10;;;;;;;18.79;55.57;95056.88;5086946;28;20019;-84
2023/06/19 00:06:05;;;;;;;4.68;3.90;;;;;;;18.79;55.51;95060.44;5086307;28;20048;-84
2023/06/19 00:08:31;;;;;;;5.90;3.88;;;;;;;18.83;55.34;95058.22;5069717;28;20024;-84
2023/06/19 00:10:56;;;;;;;4.63;4.13;;;;;;;18.73;55.70;95053.28;5088291;28;20050;-84
2023/06/19 00:13:21;;;;;;;4.68;3.85;;;;;;;18.79;55.54;95060.44;5088041;28;20107;-84
2023/06/19 00:15:47;;;;;;;8.73;3.85;;;;;;;18.75;55.55;95059.09;5086604;28;20047;-84
2023/06/19 00:18:13;;;;;;;4.72;3.72;;;;;;;18.71;55.44;95053.75;5086517;28;20426;-84
2023/06/19 00:20:39;;;;;;;6.03;3.88;;;;;;;18.80;55.37;95052.84;5093127;28;20028;-84
2023/06/19 00:23:05;;;;;;;4.70;3.67;;;;;;;18.75;55.31;95051.53;5089381;28;20513;-84
2023/06/19 00:25:30;;;;;;;5.82;3.85;;;;;;;18.73;55.75;95048.47;5086662;28;20025;-84
2023/06/19 00:27:55;;;;;;;6.43;3.50;;;;;;;18.70;55.25;95054.25;5087990;28;20403;-84
2023/06/19 00:30:21;;;;;;;6.25;3.78;;;;;;;18.69;55.62;95049.91;5085670;28;20649;-84
2023/06/19 00:32:46;;;;;;;6.45;4.18;;;;;;;18.72;55.65;95049.72;5087959;28;20047;-85
2023/06/19 00:35:15;;;;;;;4.53;3.60;;;;;;;18.71;55.67;95047.44;5087409;28;20044;-85
2023/06/19 00:37:44;;;;;;;5.15;4.00;;;;;;;18.66;55.90;95042.53;5086180;28;20513;-84
2023/06/19 00:40:14;;;;;;;4.55;3.85;;;;;;;18.65;55.94;95038.22;5085899;28;20024;-85
2023/06/19 00:42:39;;;;;;;4.25;3.33;;;;;;;18.65;55.63;95038.97;5086473;28;20025;-84
2023/06/19 00:45:05;;;;;;;6.22;3.97;;;;;;;18.65;55.55;95041.78;5086548;28;20406;-83
2023/06/19 00:47:33;;;;;;;4.18;3.78;;;;;;;18.69;56.03;95036.75;5087166;28;20111;-84
2023/06/19 00:49:58;;;;;;;4.93;4.13;;;;;;;18.65;55.53;95041.00;5087077;28;20032;-85
2023/06/19 00:52:24;;;;;;;4.65;3.95;;;;;;;18.60;55.52;95036.88;5086923;28;20375;-85
2023/06/19 00:54:49;;;;;;;4.95;4.25;;;;;;;18.51;55.66;95026.66;5087522;28;20095;-84
2023/06/19 00:57:14;;;;;;;4.60;4.13;;;;;;;18.54;55.95;95027.72;5086951;28;20020;-84
2023/06/19 00:59:40;;;;;;;4.63;3.90;;;;;;;18.53;56.23;95015.81;5087109;28;20068;-84
2023/06/19 01:02:05;;;;;;;5.00;3.78;;;;;;;18.52;56.28;95014.28;5085373;28;20038;-84
2023/06/19 01:04:31;;;;;;;4.95;4.05;;;;;;;18.50;55.94;95016.00;5085517;28;20027;-84
2023/06/19 01:07:00;;;;;;;7.07;4.07;;;;;;;18.45;56.02;95011.13;5087179;28;20130;-84
2023/06/19 01:09:32;;;;;;;5.10;4.10;;;;;;;18.41;55.92;95008.56;5085505;28;20047;-85
2023/06/19 01:12:03;;;;;;;8.82;4.10;;;;;;;18.39;56.36;95013.84;5085558;28;20035;-84
2023/06/19 01:14:49;;;;;;;4.82;3.58;;;;;;;18.37;56.30;95007.25;5087059;28;20069;-84
2023/06/19 01:17:17;;;;;;;7.18;3.80;;;;;;;18.36;55.92;95012.03;5085606;28;20060;-83
2023/06/19 01:19:42;;;;;;;5.43;3.80;;;;;;;18.36;56.16;95014.06;5087665;28;20123;-84
2023/06/19 01:22:07;;;;;;;7.13;3.78;;;;;;;18.36;55.93;95014.06;5086607;28;20088;-83
2023/06/19 01:24:33;;;;;;;4.15;3.75;;;;;;;18.31;55.96;95005.16;5086963;28;20503;-84
2023/06/19 01:26:58;;;;;;;4.60;3.92;;;;;;;18.30;55.89;95014.00;5091228;28;20036;-84
2023/06/19 01:29:24;;;;;;;6.35;3.90;;;;;;;18.28;56.35;95011.66;5086575;28;20024;-83
2023/06/19 01:32:06;;;;;;;6.90;4.60;;;;;;;18.24;56.34;95000.00;5086590;28;20043;-83
2023/06/19 01:34:33;;;;;;;4.35;3.80;;;;;;;18.24;56.47;95005.56;5084922;28;20054;-83
2023/06/19 01:36:59;;;;;;;4.97;3.45;;;;;;;18.23;56.48;95015.16;5085034;28;20032;-85
2023/06/19 01:39:25;;;;;;;7.85;4.15;;;;;;;18.20;56.33;95021.69;5067848;28;20016;-84
2023/06/19 01:41:51;;;;;;;5.50;3.95;;;;;;;18.19;56.28;95027.75;5085257;28;20095;-83
2023/06/19 01:44:17;;;;;;;5.95;4.13;;;;;;;18.18;56.36;95032.56;5084969;28;20112;-84
2023/06/19 01:46:42;;;;;;;7.05;4.28;;;;;;;18.18;55.90;95029.78;5084849;28;20305;-85
2023/06/19 01:49:09;;;;;;;5.80;3.53;;;;;;;18.16;56.01;95028.72;5085075;28;20501;-84
2023/06/19 01:51:35;;;;;;;5.40;3.88;;;;;;;18.15;56.25;95027.94;5086004;28;20028;-84
2023/06/19 01:54:01;;;;;;;4.30;3.50;;;;;;;18.14;55.94;95031.22;5085999;28;20032;-85
2023/06/19 01:56:26;;;;;;;5.45;3.97;;;;;;;18.10;56.27;95025.84;5086047;28;20028;-85
2023/06/19 01:58:52;;;;;;;4.35;3.50;;;;;;;18.09;56.61;95032.66;5086272;28;20032;-85
2023/06/19 02:01:17;;;;;;;5.18;3.67;;;;;;;18.11;57.27;95032.94;5086013;28;20024;-84
2023/06/19 02:03:42;;;;;;;6.45;4.57;;;;;;;18.05;57.41;95032.84;5085948;28;20044;-85
2023/06/19 02:06:08;;;;;;;4.93;3.97;;;;;;;18.05;57.81;95040.44;5086315;28;20487;-85
2023/06/19 02:08:33;;;;;;;4.65;4.03;;;;;;;18.03;58.10;95042.94;5067622;28;20125;-84
2023/06/19 02:10:58;;;;;;;6.43;4.07;;;;;;;18.02;58.05;95036.63;5086162;28;20066;-85
2023/06/19 02:13:24;;;;;;;6.93;4.28;;;;;;;17.99;58.14;95043.13;5100033;28;20063;-85
2023/06/19 02:15:51;;;;;;;5.82;4.45;;;;;;;17.98;58.34;95041.59;5088981;28;20047;-85
2023/06/19 02:18:16;;;;;;;11.27;4.80;;;;;;;17.94;58.59;95043.03;5084851;28;20024;-84
2023/06/19 02:20:41;;;;;;;7.80;4.93;;;;;;;17.91;59.21;95044.03;5085773;28;20018;-84
2023/06/19 02:23:07;;;;;;;7.40;5.85;;;;;;;17.89;58.76;95041.75;5086137;28;20111;-85
2023/06/19 02:25:33;;;;;;;8.05;5.65;;;;;;;17.87;58.52;95049.00;5085603;28;20399;-85
2023/06/19 02:27:59;;;;;;;10.77;6.07;;;;;;;17.85;59.06;95045.97;5086254;28;20036;-85
2023/06/19 02:30:24;;;;;;;9.02;7.55;;;;;;;17.80;58.32;95049.41;5088802;28;20422;-84
2023/06/19 02:32:50;;;;;;;12.80;8.75;;;;;;;17.82;57.91;95050.44;5085978;28;20031;-84
2023/06/19 02:35:15;;;;;;;13.02;10.82;;;;;;;17.75;57.82;95054.41;5086037;28;20026;-84
2023/06/19 02:37:40;;;;;;;12.13;9.43;;;;;;;17.71;58.24;95056.56;5085492;28;20036;-84
2023/06/19 02:40:07;;;;;;;8.98;7.28;;;;;;;17.68;58.23;95054.75;5084511;28;20444;-84
2023/06/19 02:42:33;;;;;;;8.48;6.50;;;;;;;17.67;58.39;95049.69;5085789;28;20035;-84
2023/06/19 02:45:02;;;;;;;6.57;5.70;;;;;;;17.67;58.28;95056.00;5085850;28;20081;-84
2023/06/19 02:47:30;;;;;;;7.22;5.53;;;;;;;17.64;58.72;95054.19;5085566;28;20052;-84
2023/06/19 02:49:55;;;;;;;7.43;5.40;;;;;;;17.60;58.92;95053.59;5067471;28;20042;-84
2023/06/19 02:52:21;;;;;;;9.80;4.90;;;;;;;17.58;58.83;95063.69;5084624;28;20157;-83
2023/06/19 02:54:46;;;;;;;8.07;5.00;;;;;;;17.58;58.79;95061.66;5083854;28;20028;-84
2023/06/19 02:57:11;;;;;;;5.35;4.47;;;;;;;17.57;58.50;95067.72;5085638;28;20070;-86
2023/06/19 02:59:37;;;;;;;7.38;4.45;;;;;;;17.51;58.79;95062.06;5085546;28;20024;-86
2023/06/19 03:02:02;;;;;;;6.63;4.65;;;;;;;17.50;59.04;95068.88;5084255;28;20020;-85
2023/06/19 03:04:28;;;;;;;6.10;4.78;;;;;;;17.49;58.54;95065.31;5085525;28;20384;-84
2023/06/19 03:06:53;;;;;;;8.05;4.45;;;;;;;17.51;59.17;95064.84;5085314;28;20172;-84
2023/06/19 03:09:19;;;;;;;17.00;6.05;;;;;;;17.47;59.60;95067.78;5087355;28;20032;-86
2023/06/19 03:11:44;;;;;;;6.53;4.72;;;;;;;17.44;59.49;95065.22;5088770;28;20028;-84
2023/06/19 03:14:10;;;;;;;7.93;5.05;;;;;;;17.44;59.50;95065.22;5089630;28;20024;-85
2023/06/19 03:16:35;;;;;;;6.18;4.72;;;;;;;17.43;59.76;95060.88;5088922;28;20505;-85
2023/06/19 03:19:01;;;;;;;12.65;5.30;;;;;;;17.41;59.96;95066.16;5088650;28;20032;-86
2023/06/19 03:21:26;;;;;;;8.57;5.40;;;;;;;17.42;60.05;95064.91;5089438;28;20035;-86
2023/06/19 03:23:52;;;;;;;7.22;5.85;;;;;;;17.44;60.60;95066.00;5088791;28;20099;-85
2023/06/19 03:26:19;;;;;;;11.40;6.20;;;;;;;17.43;61.09;95061.69;5088888;28;20031;-86
2023/06/19 03:28:44;;;;;;;10.65;5.15;;;;;;;17.40;60.97;95059.84;5087113;28;20020;-84
2023/06/19 03:31:09;;;;;;;7.90;4.97;;;;;;;17.41;60.18;95063.38;5087409;28;20025;-85
2023/06/19 03:33:35;;;;;;;8.60;5.10;;;;;;;17.37;59.78;95068.34;5089180;28;20047;-86
2023/06/19 03:36:00;;;;;;;7.50;5.03;;;;;;;17.32;59.97;95064.25;5095421;28;20020;-86
2023/06/19 03:38:25;;;;;;;9.77;6.32;;;;;;;17.35;59.94;95065.31;5088686;28;20024;-85
2023/06/19 03:40:51;;;;;;;8.45;6.28;;;;;;;17.33;60.25;95065.78;5088377;28;20049;-85
2023/06/19 03:43:16;;;;;;;7.85;5.95;;;;;;;17.29;60.12;95070.75;5087665;28;20012;-84
2023/06/19 03:45:42;;;;;;;9.73;5.68;;;;;;;17.21;59.75;95048.16;5088895;28;20028;-84
2023/06/19 03:48:07;;;;;;;6.53;5.25;;;;;;;17.32;60.23;95066.25;5088228;28;20111;-83
2023/06/19 03:50:33;;;;;;;6.90;5.25;;;;;;;17.33;60.41;95065.03;5090938;28;20387;-89
2023/06/19 03:52:58;;;;;;;8.70;5.93;;;;;;;17.29;60.55;95061.66;5088864;28;20111;-88
2023/06/19 03:55:24;;;;;;;8.65;6.38;;;;;;;17.34;60.02;95063.78;5088590;28;20020;-84
2023/06/19 03:57:49;;;;;;;8.63;6.30;;;;;;;17.34;60.19;95061.75;5088407;28;20024;-86
2023/06/19 04:00:18;;;;;;;8.55;5.80;;;;;;;17.32;59.60;95060.69;5087175;28;20146;-86
2023/06/19 04:02:46;;;;;;;8.55;5.10;;;;;;;17.35;59.12;95070.84;5088329;28;20153;-85
2023/06/19 04:05:11;;;;;;;11.73;5.22;;;;;;;17.35;59.00;95062.53;5086687;28;20021;-86
2023/06/19 04:07:37;;;;;;;7.20;5.10;;;;;;;17.40;59.36;95059.09;5070149;28;20032;-86
2023/06/19 04:10:03;;;;;;;6.43;5.30;;;;;;;17.43;59.02;95058.91;5087429;28;20024;-90
2023/06/19 04:12:28;;;;;;;9.93;4.78;;;;;;;17.47;58.66;95061.47;5088952;28;20028;-89
2023/06/19 04:14:53;;;;;;;5.85;4.68;;;;;;;17.49;57.90;95059.75;5111110;28;20049;-89
2023/06/19 04:17:19;;;;;;;10.55;4.90;;;;;;;17.50;58.22;95060.53;5097738;28;20044;-90
2023/06/19 04:19:44;;;;;;;6.18;5.00;;;;;;;17.53;58.32;95060.31;5089071;28;20024;-90
2023/06/19 04:22:10;;;;;;;7.15;5.18;;;;;;;17.56;58.08;95058.59;5089046;28;20019;-90
2023/06/19 04:24:35;;;;;;;8.80;5.53;;;;;;;17.59;58.29;95054.84;5091571;28;20087;-89
2023/06/19 04:27:01;;;;;;;10.45;5.20;;;;;;;17.60;58.27;95050.06;5087420;28;20028;-88
2023/06/19 04:29:31;;;;;;;6.97;4.60;;;;;;;17.67;57.91;95046.91;5091177;28;20035;-87
2023/06/19 04:32:00;;;;;;;5.93;4.47;;;;;;;17.73;57.38;95054.13;5104397;28;20024;-87
2023/06/19 04:34:26;;;;;;;9.95;4.60;;;;;;;17.75;57.69;95048.84;5104724;28;20118;-88
2023/06/19 04:36:51;;;;;;;5.63;4.43;;;;;;;17.81;56.92;95048.16;5078529;28;20122;-90
2023/06/19 04:39:17;;;;;;;7.15;4.15;;;;;;;17.85;56.53;95049.50;5096691;28;20027;-88
2023/06/19 04:41:45;;;;;;;4.85;4.05;;;;;;;17.89;56.17;95052.06;5091394;28;20557;-89
2023/06/19 04:44:14;;;;;;;7.43;4.10;;;;;;;17.97;55.72;95050.44;5088851;28;20020;-91
2023/06/19 04:46:40;;;;;;;6.32;4.03;;;;;;;17.95;56.00;95050.13;5090569;28;20051;-90
2023/06/19 04:49:06;;;;;;;6.60;4.20;;;;;;;17.98;56.16;95052.72;5087867;28;20028;-92
2023/06/19 04:51:32;;;;;;;5.53;4.15;;;;;;;18.05;55.05;95057.88;5087886;28;20085;-88
2023/06/19 04:54:01;;;;;;;6.10;3.97;;;;;;;18.08;55.29;95050.59;5087584;28;20036;-88
2023/06/19 04:56:28;;;;;;;7.88;3.97;;;;;;;18.15;55.33;95047.41;5086358;28;20410;-89
2023/06/19 04:58:55;;;;;;;6.95;4.30;;;;;;;18.15;55.56;95050.19;5086072;28;20052;-90
2023/06/19 05:01:27;;;;;;;5.88;3.80;;;;;;;18.21;55.07;95055.84;5087757;28;20023;-91
2023/06/19 05:03:53;;;;;;;6.72;4.60;;;;;;;18.19;54.88;95048.00;5088521;28;20097;-91
2023/06/19 05:06:18;;;;;;;4.88;4.20;;;;;;;18.30;55.30;95056.50;5087892;28;20040;-87
2023/06/19 05:08:44;;;;;;;6.15;4.03;;;;;;;18.30;54.91;95053.72;5086939;28;20502;-84
2023/06/19 05:11:09;;;;;;;7.72;3.97;;;;;;;18.27;55.61;95053.91;5086757;28;20115;-89
2023/06/19 05:13:35;;;;;;;7.20;3.80;;;;;;;18.36;56.00;95056.56;5085655;28;20043;-87
2023/06/19 05:16:00;;;;;;;8.43;4.25;;;;;;;18.41;56.15;95055.09;5087010;28;20030;-91
2023/06/19 05:18:25;;;;;;;5.60;3.80;;;;;;;18.47;55.33;95055.97;5087468;28;20032;-89
2023/06/19 05:20:51;;;;;;;5.85;4.20;;;;;;;18.48;55.02;95046.34;5086943;28;20020;-88
2023/06/19 05:23:16;;;;;;;5.10;4.15;;;;;;;18.51;55.14;95053.72;5085577;28;20548;-87
2023/06/19 05:25:43;;;;;;;7.57;4.18;;;;;;;18.48;55.31;95057.50;5086747;28;20017;-86
2023/06/19 05:28:09;;;;;;;6.90;4.40;;;;;;;18.48;55.67;95060.28;5085183;28;20548;-86
2023/06/19 05:30:34;;;;;;;4.53;3.67;;;;;;;18.50;55.41;95063.31;5084590;28;20028;-87
2023/06/19 05:33:00;;;;;;;5.47;3.88;;;;;;;18.50;55.52;95064.09;5085434;28;20031;-86
2023/06/19 05:35:26;;;;;;;7.60;4.25;;;;;;;18.53;55.59;95077.06;5086379;28;20457;-86
2023/06/19 05:37:52;;;;;;;5.50;4.13;;;;;;;18.53;55.68;95079.84;5085082;28;20028;-84
2023/06/19 05:40:18;;;;;;;6.90;4.63;;;;;;;18.56;55.52;95072.50;5089128;28;20047;-95
2023/06/19 05:42:43;;;;;;;7.30;5.20;;;;;;;18.56;55.78;95069.72;5091864;28;20474;-91
2023/06/19 05:45:09;;;;;;;4.50;3.83;;;;;;;18.66;55.92;95079.50;5098509;28;20473;-91
2023/06/19 05:47:34;;;;;;;6.20;4.90;;;;;;;18.76;56.06;95080.91;5100913;28;20020;-95
2023/06/19 05:50:00;;;;;;;7.68;4.20;;;;;;;18.82;55.92;95083.78;5100306;28;20028;-92
2023/06/19 05:52:25;;;;;;;6.18;4.32;;;;;;;18.82;55.89;95078.97;5098981;28;20028;-92
2023/06/19 05:54:53;;;;;;;7.07;5.28;;;;;;;18.95;55.74;95089.00;5093919;28;20039;-93
2023/06/19 05:57:20;;;;;;;5.93;4.07;;;;;;;19.01;55.61;95087.03;5096613;28;20043;-91
2023/06/19 05:59:50;;;;;;;6.28;4.40;;;;;;;18.99;55.56;95084.75;5088589;28;20028;-89
2023/06/19 06:02:15;;;;;;;5.65;4.68;;;;;;;19.04;55.06;95089.63;5088839;28;20028;-90
2023/06/19 06:04:42;;;;;;;6.95;4.00;;;;;;;19.16;54.38;95092.53;5090214;28;20024;-91
2023/06/19 06:07:07;;;;;;;5.05;4.30;;;;;;;19.22;54.38;95093.34;5087848;28;20410;-91
2023/06/19 06:09:33;;;;;;;10.32;7.95;;;;;;;19.29;54.31;95090.91;5071457;28;20032;-91
2023/06/19 06:11:59;;;;;;;6.00;5.13;;;;;;;19.35;53.43;95086.16;5089862;28;20063;-91
2023/06/19 06:14:25;;;;;;;7.78;5.78;;;;;;;19.39;53.35;95088.72;5085394;28;20072;-89
2023/06/19 06:16:51;;;;;;;5.45;4.63;;;;;;;19.44;53.77;95095.59;5084939;28;20107;-90
2023/06/19 06:19:20;;;;;;;4.70;4.05;;;;;;;19.47;53.78;95094.63;5086898;28;20028;-90
2023/06/19 06:21:45;;;;;;;6.60;4.00;;;;;;;19.54;53.43;95097.72;5086384;28;20024;-87
2023/06/19 06:24:11;;;;;;;4.55;3.97;;;;;;;19.62;53.52;95103.69;5086021;28;20089;-92
2023/06/19 06:26:37;;;;;;;5.55;4.40;;;;;;;19.71;53.64;95109.09;5087054;28;20056;-90
2023/06/19 06:29:02;;;;;;;6.22;4.25;;;;;;;19.76;53.09;95108.38;5087653;28;20042;-90
2023/06/19 06:31:27;;;;;;;4.75;3.95;;;;;;;19.81;52.56;95104.09;5086074;28;20537;-88
2023/06/19 06:33:53;;;;;;;6.13;4.50;;;;;;;19.84;52.80;95103.91;5086662;28;20491;-90
2023/06/19 06:36:18;;;;;;;5.82;3.92;;;;;;;19.89;52.64;95103.16;5086403;28;20032;-90
2023/06/19 06:38:44;;;;;;;4.68;3.92;;;;;;;19.94;52.41;95106.50;5086031;28;20020;-89
2023/06/19 06:41:09;;;;;;;4.97;3.85;;;;;;;20.06;52.48;95108.88;5088585;28;20115;-89
2023/06/19 06:43:35;;;;;;;4.82;3.75;;;;;;;20.11;52.25;95115.75;5088398;28;20024;-88
2023/06/19 06:46:00;;;;;;;5.85;3.85;;;;;;;20.16;51.40;95115.81;5089030;28;20050;-90
2023/06/19 06:48:26;;;;;;;6.30;3.78;;;;;;;20.24;51.33;95109.78;5096924;28;20020;-90
2023/06/19 06:50:58;;;;;;;6.28;3.85;;;;;;;20.27;51.51;95111.56;5091815;28;20047;-91
2023/06/19 06:53:25;;;;;;;6.47;4.03;;;;;;;20.27;51.33;95114.38;5091617;28;20043;-90
2023/06/19 06:55:50;;;;;;;5.72;3.80;;;;;;;20.30;51.79;95116.16;5100366;28;20034;-91
2023/06/19 06:58:17;;;;;;;6.00;3.83;;;;;;;20.43;51.22;95110.94;5103108;28;20056;-90
2023/06/19 07:00:43;;;;;;;5.85;4.00;;;;;;;20.48;51.20;95110.25;5090252;28;20029;-91
2023/06/19 07:03:08;;;;;;;5.68;4.20;;;;;;;20.49;51.32;95108.22;5092979;28;20635;-89
2023/06/19 07:05:33;;;;;;;5.65;4.47;;;;;;;20.61;50.94;95115.38;5100427;28;20052;-90
2023/06/19 07:07:59;;;;;;;7.50;4.75;;;;;;;20.71;50.63;95110.38;5107986;28;20679;-90
2023/06/19 07:10:24;;;;;;;9.38;4.70;;;;;;;20.77;49.99;95105.59;5094535;28;20028;-89
2023/06/19 07:12:51;;;;;;;7.30;5.60;;;;;;;20.83;50.97;95101.53;5092226;28;20403;-90
2023/06/19 07:15:16;;;;;;;10.50;5.60;;;;;;;20.97;49.37;95104.66;5098637;28;20449;-92
2023/06/19 07:17:42;;;;;;;5.75;4.35;;;;;;;21.04;48.75;95102.13;5115295;28;20020;-91
2023/06/19 07:20:08;;;;;;;6.00;4.50;;;;;;;21.08;47.94;95101.91;5113743;28;20051;-92
2023/06/19 07:22:34;;;;;;;7.65;5.22;;;;;;;21.13;48.03;95092.78;5110366;28;20098;-91
2023/06/19 07:24:59;;;;;;;7.53;4.65;;;;;;;21.18;47.88;95098.38;5106475;28;20032;-92
2023/06/19 07:27:27;;;;;;;5.97;3.65;;;;;;;21.26;48.16;95111.88;5099981;28;20481;-92
2023/06/19 07:29:53;;;;;;;7.05;4.35;;;;;;;21.36;48.19;95111.19;5096146;28;20024;-94
2023/06/19 07:32:18;;;;;;;7.47;5.30;;;;;;;21.40;48.17;95110.94;5095659;28;20042;-88
2023/06/19 07:34:44;;;;;;;6.43;4.18;;;;;;;21.44;48.08;95114.25;5070687;28;20066;-90
2023/06/19 07:37:09;;;;;;;5.35;4.40;;;;;;;21.50;48.09;95105.88;5090363;28;20440;-90
2023/06/19 07:39:34;;;;;;;6.00;4.35;;;;;;;21.64;47.53;95113.28;5088952;28;20028;-90
2023/06/19 07:42:00;;;;;;;5.88;4.40;;;;;;;21.72;46.86;95114.31;5091267;28;20102;-91
2023/06/19 07:44:25;;;;;;;5.93;4.95;;;;;;;21.79;46.39;95115.84;5090082;28;20024;-92
2023/06/19 07:46:50;;;;;;;8.65;4.38;;;;;;;21.89;46.76;95109.50;5090608;28;20060;-91
2023/06/19 07:49:16;;;;;;;5.30;4.00;;;;;;;21.99;46.82;95104.44;5090159;28;20035;-92
2023/06/19 07:51:41;;;;;;;5.72;3.70;;;;;;;22.00;46.67;95114.34;5093709;28;20047;-91
2023/06/19 07:54:07;;;;;;;7.22;4.00;;;;;;;22.06;45.51;95106.72;5098897;28;20020;-90
2023/06/19 07:56:33;;;;;;;5.35;3.88;;;;;;;22.14;44.25;95107.00;5092423;28;20487;-90
2023/06/19 07:58:58;;;;;;;5.60;4.55;;;;;;;22.25;43.68;95113.38;5090632;28;20542;-89
2023/06/19 08:01:24;;;;;;;7.78;3.65;;;;;;;22.31;43.38;95110.56;5087789;28;20107;-88
2023/06/19 08:03:49;;;;;;;5.75;3.58;;;;;;;22.29;43.89;95112.34;5094331;28;20020;-88
2023/06/19 08:06:15;;;;;;;5.28;3.45;;;;;;;22.39;44.56;95113.59;5098243;28;20048;-90
2023/06/19 08:08:40;;;;;;;5.63;4.25;;;;;;;22.48;44.42;95105.72;5090849;28;20078;-88
2023/06/19 08:11:05;;;;;;;8.38;5.93;;;;;;;22.51;45.09;95103.91;5096407;28;20028;-92
2023/06/19 08:13:31;;;;;;;7.18;4.63;;;;;;;22.66;45.24;95117.66;5091323;28;20497;-88
2023/06/19 08:15:56;;;;;;;6.70;4.30;;;;;;;22.77;43.39;95114.81;5089557;28;20028;-91
2023/06/19 08:18:21;;;;;;;5.43;4.30;;;;;;;22.84;42.51;95108.69;5090675;28;20170;-87
2023/06/19 08:20:47;;;;;;;5.13;3.65;;;;;;;22.92;41.92;95104.09;5094792;28;20099;-86
2023/06/19 08:23:12;;;;;;;5.05;4.30;;;;;;;23.01;41.82;95101.00;5096335;28;20093;-90
2023/06/19 08:25:37;;;;;;;5.57;4.47;;;;;;;23.10;41.25;95116.00;5102428;28;20028;-93
2023/06/19 08:28:04;;;;;;;5.20;3.83;;;;;;;23.15;42.18;95115.22;5095449;28;20343;-90
2023/06/19 08:30:30;;;;;;;4.82;3.47;;;;;;;23.19;41.00;95107.31;5089580;28;20159;-90
2023/06/19 08:32:55;;;;;;;5.75;4.15;;;;;;;23.23;41.62;95117.00;5090564;28;20028;-90
2023/06/19 08:35:20;;;;;;;5.47;4.03;;;;;;;23.28;42.16;95107.00;5089605;28;20487;-90
2023/06/19 08:37:46;;;;;;;6.93;4.22;;;;;;;23.33;41.00;95111.84;5089226;28;20567;-91
2023/06/19 08:40:12;;;;;;;6.32;4.38;;;;;;;23.37;40.14;95109.53;5090083;28;20103;-90
2023/06/19 08:42:38;;;;;;;7.28;4.00;;;;;;;23.46;40.94;95108.47;5090150;28;20037;-90
2023/06/19 08:45:06;;;;;;;4.78;4.25;;;;;;;23.57;41.53;95106.38;5088904;28;20024;-91
2023/06/19 08:47:31;;;;;;;6.15;3.95;;;;;;;23.63;40.54;95108.38;5089521;28;20074;-91
2023/06/19 08:49:58;;;;;;;6.20;4.90;;;;;;;23.72;39.63;95108.84;5088991;28;20445;-91
2023/06/19 08:52:23;;;;;;;7.28;4.50;;;;;;;23.77;39.28;95104.50;5089655;28;20604;-90
2023/06/19 08:54:49;;;;;;;6.25;4.30;;;;;;;23.89;40.09;95105.94;5089010;28;20106;-90
2023/06/19 08:57:14;;;;;;;6.30;4.95;;;;;;;24.03;38.44;95110.44;5092297;28;20035;-91
2023/06/19 08:59:48;;;;;;;7.47;4.13;;;;;;;24.17;37.82;95108.53;5093542;28;20052;-89
2023/06/19 09:02:13;;;;;;;5.07;4.05;;;;;;;24.25;37.75;95111.53;5089259;28;20035;-90
2023/06/19 09:04:38;;;;;;;4.22;3.35;;;;;;;24.34;38.33;95112.00;5090141;28;20483;-90
2023/06/19 09:07:04;;;;;;;4.93;3.78;;;;;;;24.41;37.84;95112.69;5087462;28;20071;-89
2023/06/19 09:09:32;;;;;;;5.28;4.00;;;;;;;24.47;38.50;95108.56;5088440;28;20045;-90
2023/06/19 09:12:05;;;;;;;6.95;3.97;;;;;;;24.53;38.04;95112.06;5088588;28;20111;-90
2023/06/19 09:14:32;;;;;;;4.35;3.80;;;;;;;24.68;36.35;95108.13;5088510;28;20059;-89
2023/06/19 09:16:58;;;;;;;4.47;3.42;;;;;;;24.84;36.05;95101.56;5087097;28;20020;-91
2023/06/19 09:19:23;;;;;;;4.85;3.33;;;;;;;24.98;35.87;95105.22;5088221;28;20020;-91
2023/06/19 09:21:49;;;;;;;5.63;3.10;;;;;;;24.99;35.12;95115.19;5089502;28;20425;-92
2023/06/19 09:24:14;;;;;;;7.18;3.72;;;;;;;25.05;35.39;95111.03;5087493;28;20089;-93
2023/06/19 09:26:40;;;;;;;4.53;3.72;;;;;;;25.25;35.70;95115.44;5088051;28;20024;-92
2023/06/19 09:29:18;;;;;;;6.75;4.60;;;;;;;25.34;36.40;95105.84;5089180;28;20081;-93
2023/06/19 09:31:44;;;;;;;7.05;4.53;;;;;;;25.49;36.09;95108.22;5096719;28;20453;-92
2023/06/19 09:34:10;;;;;;;5.97;4.72;;;;;;;25.58;35.81;95091.72;5100923;28;20028;-93
2023/06/19 09:36:35;;;;;;;4.50;4.03;;;;;;;25.67;36.59;95101.81;5098720;28;20028;-91
2023/06/19 09:39:04;;;;;;;7.07;4.70;;;;;;;25.78;36.30;95092.50;5091425;28;20287;-91
2023/06/19 09:41:30;;;;;;;6.38;4.30;;;;;;;25.94;35.36;95092.25;5088953;28;20028;-90
2023/06/19 09:43:59;;;;;;;5.43;3.97;;;;;;;26.07;35.71;95110.50;5089177;28;20111;-90
2023/06/19 09:46:28;;;;;;;6.05;4.10;;;;;;;26.18;35.42;95097.00;5090229;28;20042;-92
2023/06/19 09:48:54;;;;;;;7.85;4.80;;;;;;;26.25;34.07;95095.59;5087704;28;20478;-91
2023/06/19 09:51:31;;;;;;;7.13;4.78;;;;;;;26.35;33.84;95085.44;5075290;28;20065;-92
2023/06/19 09:53:57;;;;;;;4.82;4.05;;;;;;;26.40;33.76;95092.28;5076824;28;20116;-90
2023/06/19 09:56:25;;;;;;;8.70;5.80;;;;;;;26.44;33.73;95087.13;5098274;28;20398;-91
2023/06/19 09:58:52;;;;;;;9.88;5.70;;;;;;;26.57;33.08;95089.97;5112992;28;20061;-92
2023/06/19 10:01:18;;;;;;;8.45;4.60;;;;;;;26.67;33.28;95085.44;5114788;28;20031;-89
2023/06/19 10:03:44;;;;;;;6.57;4.50;;;;;;;26.84;33.47;95092.78;5110799;28;20031;-90
2023/06/19 10:06:17;;;;;;;10.20;6.05;;;;;;;26.92;33.36;95085.97;5103681;28;20052;-89
2023/06/19 10:08:43;;;;;;;7.70;5.20;;;;;;;27.04;33.26;95082.94;5091020;28;20023;-91
2023/06/19 10:11:12;;;;;;;5.28;3.58;;;;;;;27.15;32.45;95077.88;5089240;28;20039;-90
2023/06/19 10:13:41;;;;;;;6.30;4.13;;;;;;;27.24;32.72;95077.44;5104546;28;20044;-92
2023/06/19 10:16:08;;;;;;;6.40;4.32;;;;;;;27.43;32.25;95073.72;5088656;28;20103;-91
2023/06/19 10:18:46;;;;;;;4.57;3.70;;;;;;;27.48;30.96;95081.31;5090394;28;20047;-92
2023/06/19 10:21:19;;;;;;;4.60;3.72;;;;;;;27.56;31.84;95078.56;5092001;28;20028;-92
2023/06/19 10:23:51;;;;;;;;;;;;;;;27.62;32.42;95077.13;5093798;28;20102;-91
2023/06/19 10:26:17;;;;;;;5.35;3.40;;;;;;;27.64;30.86;95070.94;5091289;28;19935;-91
2023/06/19 10:28:46;;;;;;;4.25;3.15;;;;;;;27.70;31.16;95071.59;5093235;28;20407;-93
2023/06/19 10:31:11;;;;;;;5.05;3.13;;;;;;;27.79;31.06;95071.88;5092550;28;20501;-91
2023/06/19 10:33:40;;;;;;;4.38;3.20;;;;;;;27.81;30.99;95067.75;5094259;28;20024;-91
2023/06/19 10:36:23;;;;;;;5.13;3.25;;;;;;;27.87;31.66;95068.38;5096827;28;20103;-91
2023/06/19 10:38:49;;;;;;;7.43;3.95;;;;;;;28.04;31.44;95069.53;5092199;28;20016;-92
2023/06/19 10:41:15;;;;;;;5.20;3.60;;;;;;;28.15;31.13;95062.81;5097795;28;20020;-92
2023/06/19 10:43:41;;;;;;;5.53;3.60;;;;;;;28.23;31.62;95055.19;5106440;28;20129;-93
2023/06/19 10:46:06;;;;;;;4.63;3.60;;;;;;;28.33;31.87;95063.19;5102080;28;20444;-93
2023/06/19 10:48:32;;;;;;;4.60;3.40;;;;;;;28.46;31.65;95063.13;5092112;28;20027;-94
2023/06/19 10:50:57;;;;;;;4.05;3.35;;;;;;;28.62;30.75;95064.78;5091395;28;20108;-91
2023/06/19 10:53:26;;;;;;;5.72;3.60;;;;;;;28.68;30.61;95058.97;5091305;28;20024;-91
2023/06/19 10:55:59;;;;;;;4.43;3.20;;;;;;;28.77;30.35;95064.88;5091307;28;20030;-90
2023/06/19 10:58:25;;;;;;;3.90;3.47;;;;;;;28.88;30.55;95058.16;5093664;28;20020;-90
2023/06/19 11:00:51;;;;;;;4.88;3.05;;;;;;;28.99;30.63;95048.63;5074604;28;20024;-92
2023/06/19 11:03:16;;;;;;;7.53;3.63;;;;;;;29.04;31.33;95054.13;5091319;28;20028;-90
2023/06/19 11:05:46;;;;;;;5.50;4.15;;;;;;;29.01;30.69;95049.56;5095556;28;20048;-90
2023/06/19 11:08:17;;;;;;;6.03;3.65;;;;;;;29.13;30.90;95050.00;5091470;28;20016;-89
2023/06/19 11:10:43;;;;;;;5.57;4.07;;;;;;;29.26;30.29;95044.25;5090509;28;20021;-90
2023/06/19 11:13:13;;;;;;;6.75;3.58;;;;;;;29.36;30.59;95041.63;5090639;28;20081;-90
2023/06/19 11:15:39;;;;;;;5.13;3.58;;;;;;;29.39;31.08;95048.25;5089780;28;20096;-90
2023/06/19 11:18:04;;;;;;;5.00;4.00;;;;;;;29.45;30.86;95048.84;5088746;28;20027;-91
2023/06/19 11:20:30;;;;;;;5.35;3.65;;;;;;;29.33;31.10;95054.09;5090381;28;20116;-90
2023/06/19 11:23:02;;;;;;;4.28;3.42;;;;;;;29.34;30.57;95047.09;5088704;28;20096;-91
2023/06/19 11:25:38;;;;;;;5.30;3.73;;;;;;;29.45;30.34;95043.94;5090551;28;20028;-90
2023/06/19 11:28:17;;;;;;;5.70;4.18;;;;;;;29.49;30.77;95041.50;5089690;28;20028;-91
2023/06/19 11:30:43;;;;;;;5.50;4.05;;;;;;;29.55;30.25;95038.53;5091084;28;20040;-90